createdAt,value
2023-04-30T00:02:06.776Z,13.93
2023-04-30T00:07:10.984Z,18.37
2023-04-30T00:12:14.930Z,18.63
2023-04-30T00:17:20.944Z,15.60
2023-04-30T00:22:22.660Z,13.80
2023-04-30T00:27:26.953Z,12.97
2023-04-30T00:32:31.067Z,16.07
2023-04-30T00:37:35.861Z,12.07
2023-04-30T00:42:37.644Z,15.30
2023-04-30T00:47:39.411Z,11.70
2023-04-30T00:52:42.001Z,14.10
2023-04-30T00:57:46.674Z,13.80
2023-04-30T01:02:48.644Z,18.70
2023-04-30T01:07:56.752Z,11.20
2023-04-30T01:13:08.333Z,17.07
2023-04-30T01:18:21.651Z,14.13
2023-04-30T01:23:31.607Z,13.70
2023-04-30T01:28:36.598Z,14.53
2023-04-30T01:33:38.333Z,14.93
2023-04-30T01:39:08.550Z,13.13
2023-04-30T01:44:38.668Z,16.17
2023-04-30T01:50:03.173Z,12.33
2023-04-30T01:55:31.127Z,14.03
2023-04-30T02:00:34.022Z,18.13
2023-04-30T02:05:38.237Z,17.13
2023-04-30T02:10:43.097Z,13.10
2023-04-30T02:15:44.811Z,16.73
2023-04-30T02:20:48.749Z,14.67
2023-04-30T02:25:52.755Z,19.13
2023-04-30T02:30:56.571Z,14.47
2023-04-30T02:36:00.080Z,17.93
2023-04-30T02:41:04.441Z,16.00
2023-04-30T02:46:06.881Z,15.23
2023-04-30T02:51:10.799Z,16.20
2023-04-30T02:56:12.478Z,16.40
2023-04-30T03:01:14.873Z,19.80
2023-04-30T03:06:24.003Z,17.83
2023-04-30T03:11:28.275Z,18.83
2023-04-30T03:16:32.149Z,22.17
2023-04-30T03:21:34.282Z,16.97
2023-04-30T03:26:41.445Z,25.73
2023-04-30T03:31:43.260Z,18.67
2023-04-30T03:36:47.525Z,13.37
2023-04-30T03:41:51.620Z,17.97
2023-04-30T03:46:53.311Z,16.70
2023-04-30T03:52:02.573Z,17.83
2023-04-30T03:57:04.614Z,16.57
2023-04-30T04:02:08.773Z,12.27
2023-04-30T04:07:12.922Z,18.07
2023-04-30T04:12:17.146Z,14.80
2023-04-30T04:17:19.244Z,18.97
2023-04-30T04:22:23.982Z,18.20
2023-04-30T04:27:25.719Z,23.10
2023-04-30T04:32:30.680Z,16.73
2023-04-30T04:37:35.617Z,13.33
2023-04-30T04:42:38.368Z,13.50
2023-04-30T04:47:42.642Z,17.13
2023-04-30T04:52:44.430Z,14.63
2023-04-30T04:57:46.655Z,11.47
2023-04-30T05:02:51.691Z,17.87
2023-04-30T05:07:55.010Z,16.60
2023-04-30T05:12:59.016Z,20.73
2023-04-30T05:18:03.351Z,14.73
2023-04-30T05:23:05.161Z,14.73
2023-04-30T05:28:07.070Z,18.77
2023-04-30T05:33:11.786Z,18.03
2023-04-30T05:38:13.676Z,14.27
2023-04-30T05:43:20.010Z,14.47
2023-04-30T05:48:23.915Z,16.17
2023-04-30T05:53:25.576Z,15.43
2023-04-30T05:58:28.370Z,12.80
2023-04-30T06:03:30.150Z,18.07
2023-04-30T06:08:31.820Z,13.97
2023-04-30T06:13:33.654Z,10.77
2023-04-30T06:18:35.447Z,13.77
2023-04-30T06:23:42.098Z,10.97
2023-04-30T06:28:47.066Z,15.67
2023-04-30T06:33:48.744Z,7.60
2023-04-30T06:38:52.763Z,17.37
2023-04-30T06:43:56.912Z,9.13
2023-04-30T06:49:03.262Z,12.43
2023-04-30T06:54:08.276Z,6.67
2023-04-30T06:59:14.410Z,14.03
2023-04-30T07:04:16.227Z,6.00
2023-04-30T07:09:20.285Z,12.33
2023-04-30T07:14:22.080Z,10.30
2023-04-30T07:19:27.103Z,6.90
2023-04-30T07:24:29.587Z,9.63
2023-04-30T07:29:31.683Z,6.73
2023-04-30T07:34:35.927Z,11.47
2023-04-30T07:39:38.264Z,9.70
2023-04-30T07:44:44.711Z,8.87
2023-04-30T07:49:47.425Z,10.90
2023-04-30T07:54:51.338Z,8.83
2023-04-30T07:59:57.587Z,9.47
2023-04-30T08:05:07.840Z,12.23
2023-04-30T08:10:14.882Z,10.87
2023-04-30T08:15:16.593Z,9.10
2023-04-30T08:20:23.349Z,8.27
2023-04-30T08:25:28.187Z,11.20
2023-04-30T08:30:33.320Z,10.60
2023-04-30T08:35:35.020Z,13.47
2023-04-30T08:45:53.312Z,7.07
2023-04-30T08:50:57.251Z,8.07
2023-04-30T08:56:01.218Z,4.65
2023-04-30T09:01:07.272Z,8.30
2023-04-30T09:06:15.812Z,10.25
2023-04-30T09:11:29.728Z,11.02
2023-04-30T09:16:49.378Z,6.00
2023-04-30T09:21:56.391Z,15.73
2023-04-30T09:26:58.092Z,6.78
2023-04-30T09:32:09.089Z,8.38
2023-04-30T09:37:13.675Z,6.55
2023-04-30T09:42:16.410Z,6.60
2023-04-30T09:47:21.224Z,12.35
2023-04-30T09:52:28.202Z,8.25
2023-04-30T09:57:31.983Z,9.60
2023-04-30T10:02:38.610Z,5.68
2023-04-30T10:07:42.933Z,8.98
2023-04-30T10:12:50.299Z,7.28
2023-04-30T10:17:59.059Z,8.35
2023-04-30T10:23:01.379Z,10.95
2023-04-30T10:28:05.891Z,11.23
2023-04-30T10:33:17.038Z,8.13
2023-04-30T10:38:25.250Z,9.35
2023-04-30T10:43:31.159Z,9.27
2023-04-30T10:48:35.951Z,10.20
2023-04-30T10:53:42.565Z,8.45
2023-04-30T10:58:46.385Z,9.27
2023-04-30T11:04:08.254Z,10.13
2023-04-30T11:09:10.162Z,6.70
2023-04-30T11:14:20.481Z,7.22
2023-04-30T11:19:25.487Z,9.00
2023-04-30T11:25:02.354Z,13.68
2023-04-30T11:30:13.220Z,6.75
2023-04-30T11:35:18.862Z,10.18
2023-04-30T11:40:22.907Z,11.38
2023-04-30T11:45:25.119Z,12.40
2023-04-30T11:50:35.988Z,8.10
2023-04-30T11:55:37.738Z,7.82
2023-04-30T12:00:44.788Z,9.75
2023-04-30T12:05:51.202Z,9.25
2023-04-30T12:10:55.624Z,5.75
2023-04-30T12:15:59.441Z,10.32
2023-04-30T12:21:01.279Z,7.70
2023-04-30T12:26:03.398Z,7.05
2023-04-30T12:31:06.050Z,5.38
2023-04-30T12:36:11.350Z,6.03
2023-04-30T12:41:17.466Z,7.82
2023-04-30T12:46:28.202Z,7.85
2023-04-30T12:51:34.916Z,6.82
2023-04-30T12:56:36.832Z,6.18
2023-04-30T13:01:45.166Z,5.13
2023-04-30T13:06:49.906Z,6.20
2023-04-30T13:11:56.573Z,6.38
2023-04-30T13:16:59.038Z,5.47
2023-04-30T13:22:01.822Z,5.35
2023-04-30T13:27:06.129Z,5.78
2023-04-30T13:32:08.391Z,6.13
2023-04-30T13:37:10.128Z,3.40
2023-04-30T13:42:11.848Z,4.30
2023-04-30T13:47:16.035Z,5.95
2023-04-30T13:52:17.703Z,3.55
2023-04-30T13:57:21.850Z,5.05
2023-04-30T14:02:23.593Z,5.30
2023-04-30T14:07:25.398Z,9.00
2023-04-30T14:12:30.704Z,6.75
2023-04-30T14:17:35.185Z,4.65
2023-04-30T14:22:39.348Z,5.65
2023-04-30T14:27:48.425Z,4.97
2023-04-30T14:32:50.209Z,5.38
2023-04-30T14:37:51.940Z,8.07
2023-04-30T14:42:55.956Z,4.05
2023-04-30T14:48:00.702Z,1.90
2023-04-30T14:53:06.910Z,2.22
2023-04-30T14:58:11.420Z,1.88
2023-04-30T15:03:16.989Z,3.38
2023-04-30T15:08:18.793Z,0.73
2023-04-30T15:13:20.605Z,1.15
2023-04-30T15:18:22.277Z,1.67
2023-04-30T15:23:26.978Z,3.28
2023-04-30T15:28:29.028Z,3.47
2023-04-30T15:33:33.700Z,2.78
2023-04-30T15:38:35.398Z,2.42
2023-04-30T15:43:37.209Z,2.20
2023-04-30T15:48:39.574Z,1.13
2023-04-30T15:53:41.364Z,4.28
2023-04-30T15:58:45.772Z,2.47
2023-04-30T16:03:50.485Z,3.92
2023-04-30T16:08:52.968Z,4.93
2023-04-30T16:13:54.715Z,3.05
2023-04-30T16:18:56.612Z,4.20
2023-04-30T16:24:03.195Z,4.97
2023-04-30T16:29:05.063Z,3.97
2023-04-30T16:34:12.262Z,2.05
2023-04-30T16:39:17.202Z,1.63
2023-04-30T16:44:19.191Z,3.05
2023-04-30T16:49:22.482Z,3.13
2023-04-30T16:54:29.524Z,2.63
2023-04-30T16:59:31.193Z,2.57
2023-04-30T17:04:36.005Z,2.75
2023-04-30T17:09:41.723Z,2.15
2023-04-30T17:14:43.490Z,3.08
2023-04-30T17:19:47.495Z,5.75
2023-04-30T17:24:51.573Z,4.07
2023-04-30T17:29:56.685Z,6.18
2023-04-30T17:35:00.063Z,6.15
2023-04-30T17:40:08.142Z,3.53
2023-04-30T17:45:13.309Z,4.70
2023-04-30T17:50:15.863Z,7.20
2023-04-30T17:55:17.864Z,5.88
2023-04-30T18:00:20.298Z,5.53
2023-04-30T18:05:22.246Z,6.93
2023-04-30T18:10:24.119Z,7.22
2023-04-30T18:15:26.806Z,6.75
2023-04-30T18:20:30.699Z,9.65
2023-04-30T18:25:34.302Z,8.40
2023-04-30T18:30:36.841Z,7.97
2023-04-30T18:35:41.110Z,7.20
2023-04-30T18:40:42.954Z,8.95
2023-04-30T18:45:44.932Z,9.27
2023-04-30T18:50:51.848Z,7.35
2023-04-30T18:55:53.855Z,7.78
2023-04-30T19:00:58.825Z,8.40
2023-04-30T19:06:00.684Z,9.82
2023-04-30T19:11:04.536Z,6.47
2023-04-30T19:16:06.831Z,9.02
2023-04-30T19:21:09.365Z,9.38
2023-04-30T19:26:11.247Z,9.63
2023-04-30T19:31:13.033Z,6.88
2023-04-30T19:36:14.955Z,8.85
2023-04-30T19:41:16.944Z,5.25
2023-04-30T19:46:18.638Z,8.18
2023-04-30T19:51:24.684Z,5.20
2023-04-30T19:56:28.703Z,9.25
2023-04-30T20:01:30.604Z,9.38
2023-04-30T20:06:35.111Z,6.05
2023-04-30T20:11:37.064Z,9.63
2023-04-30T20:16:41.909Z,6.03
2023-04-30T20:21:46.636Z,6.32
2023-04-30T20:26:48.379Z,8.65
2023-04-30T20:31:53.156Z,8.55
2023-04-30T20:37:00.071Z,7.22
2023-04-30T20:42:01.854Z,10.70
2023-04-30T20:47:05.317Z,8.30
2023-04-30T20:52:07.338Z,8.32
2023-04-30T20:57:11.358Z,6.15
2023-04-30T21:02:15.649Z,4.85
2023-04-30T21:07:19.672Z,6.03
2023-04-30T21:12:23.489Z,7.10
2023-04-30T21:17:29.955Z,6.90
2023-04-30T21:22:32.421Z,6.95
2023-04-30T21:27:34.079Z,7.13
2023-04-30T21:32:40.614Z,8.38
2023-04-30T21:37:49.977Z,4.93
2023-04-30T21:42:57.425Z,5.10
2023-04-30T21:48:01.666Z,7.40
2023-04-30T21:53:03.425Z,8.13
2023-04-30T21:58:07.366Z,9.30
2023-04-30T22:03:11.424Z,7.87
2023-04-30T22:08:16.099Z,8.40
2023-04-30T22:13:20.362Z,5.37
2023-04-30T22:18:22.962Z,6.13
2023-04-30T22:23:29.502Z,9.30
2023-04-30T22:28:33.709Z,6.07
2023-04-30T22:33:36.585Z,11.83
2023-04-30T22:38:40.573Z,9.33
2023-04-30T22:43:42.386Z,6.87
2023-04-30T22:48:46.419Z,10.03
2023-04-30T22:53:50.466Z,13.50
2023-04-30T22:58:54.538Z,7.87
2023-04-30T23:04:01.537Z,13.03
2023-04-30T23:09:03.624Z,6.37
2023-04-30T23:14:08.207Z,7.30
2023-04-30T23:19:10.432Z,11.80
2023-04-30T23:24:14.790Z,9.10
2023-04-30T23:29:18.702Z,13.23
2023-04-30T23:34:24.199Z,14.03
2023-04-30T23:39:25.911Z,11.90
2023-04-30T23:44:32.368Z,9.20
2023-04-30T23:49:34.339Z,14.67
2023-04-30T23:54:36.138Z,14.23
2023-04-30T23:59:42.637Z,10.10
